createdAt,value
2017-07-16T00:00:53.354Z,12.13
2017-07-16T00:03:20.933Z,12.50
2017-07-16T00:05:48.524Z,14.13
2017-07-16T00:08:16.091Z,16.00
2017-07-16T00:10:43.659Z,16.10
2017-07-16T00:13:11.244Z,15.10
2017-07-16T00:15:39.580Z,10.33
2017-07-16T00:18:07.356Z,12.20
2017-07-16T00:20:34.994Z,14.37
2017-07-16T00:23:02.588Z,11.13
2017-07-16T00:25:30.158Z,9.63
2017-07-16T00:27:58.591Z,17.13
2017-07-16T00:30:26.177Z,9.90
2017-07-16T00:32:53.746Z,12.43
2017-07-16T00:35:21.316Z,13.17
2017-07-16T00:37:49.647Z,16.33
2017-07-16T00:40:17.242Z,17.30
2017-07-16T00:42:44.814Z,13.43
2017-07-16T00:45:12.418Z,16.23
2017-07-16T00:47:39.987Z,10.63
2017-07-16T00:50:07.608Z,10.50
2017-07-16T00:52:35.203Z,18.13
2017-07-16T00:55:02.774Z,12.57
2017-07-16T00:57:30.336Z,16.03
2017-07-16T00:59:57.915Z,13.20
2017-07-16T01:02:25.484Z,12.03
2017-07-16T01:04:53.834Z,12.07
2017-07-16T01:07:21.417Z,11.10
2017-07-16T01:09:49.764Z,12.03
2017-07-16T01:12:17.340Z,11.93
2017-07-16T01:14:44.974Z,16.97
2017-07-16T01:17:12.548Z,18.43
2017-07-16T01:19:40.119Z,22.43
2017-07-16T01:22:07.748Z,18.83
2017-07-16T01:24:35.424Z,19.90
2017-07-16T01:27:02.996Z,20.40
2017-07-16T01:29:30.630Z,21.93
2017-07-16T01:31:58.216Z,24.10
2017-07-16T01:34:25.798Z,15.73
2017-07-16T01:36:54.152Z,20.87
2017-07-16T01:39:21.788Z,27.30
2017-07-16T01:41:49.371Z,24.40
2017-07-16T01:44:17.006Z,19.80
2017-07-16T01:46:44.607Z,18.17
2017-07-16T01:49:12.254Z,21.00
2017-07-16T01:51:39.983Z,26.20
2017-07-16T01:54:07.555Z,19.70
2017-07-16T01:56:35.133Z,26.50
2017-07-16T01:59:02.720Z,23.23
2017-07-16T02:01:31.068Z,26.70
2017-07-16T02:03:58.644Z,19.43
2017-07-16T02:06:26.257Z,22.03
2017-07-16T02:08:53.857Z,21.90
2017-07-16T02:11:21.440Z,20.57
2017-07-16T02:13:49.971Z,20.77
2017-07-16T02:16:17.555Z,22.87
2017-07-16T02:18:45.136Z,22.90
2017-07-16T02:21:12.729Z,23.23
2017-07-16T02:23:40.462Z,23.60
2017-07-16T02:26:08.073Z,21.20
2017-07-16T02:28:35.648Z,17.43
2017-07-16T02:31:03.224Z,20.63
2017-07-16T02:33:30.810Z,23.20
2017-07-16T02:35:58.450Z,25.57
2017-07-16T02:38:26.810Z,20.50
2017-07-16T02:40:54.404Z,20.77
2017-07-16T02:43:22.003Z,21.80
2017-07-16T02:45:49.567Z,20.93
2017-07-16T02:48:17.142Z,20.60
2017-07-16T02:50:44.765Z,19.80
2017-07-16T02:53:12.386Z,24.23
2017-07-16T02:55:40.831Z,30.17
2017-07-16T02:58:08.420Z,23.63
2017-07-16T03:00:36.760Z,20.83
2017-07-16T03:03:04.419Z,25.90
2017-07-16T03:05:32.008Z,24.30
2017-07-16T03:07:59.592Z,26.20
2017-07-16T03:10:27.189Z,26.53
2017-07-16T03:12:54.764Z,25.43
2017-07-16T03:15:22.339Z,28.87
2017-07-16T03:17:49.915Z,23.73
2017-07-16T03:20:17.500Z,27.90
2017-07-16T03:22:45.084Z,21.87
2017-07-16T03:25:24.439Z,30.40
2017-07-16T03:27:52.021Z,31.30
2017-07-16T03:30:19.587Z,26.63
2017-07-16T03:32:47.171Z,28.90
2017-07-16T03:35:14.787Z,25.00
2017-07-16T03:37:42.367Z,24.37
2017-07-16T03:40:10.716Z,40.10
2017-07-16T03:42:38.313Z,27.30
2017-07-16T03:45:06.687Z,30.77
2017-07-16T03:47:35.092Z,29.17
2017-07-16T03:50:02.667Z,27.80
2017-07-16T03:52:30.288Z,35.20
2017-07-16T03:54:57.880Z,26.40
2017-07-16T03:57:25.465Z,30.13
2017-07-16T03:59:53.031Z,26.10
2017-07-16T04:02:20.606Z,30.37
2017-07-16T04:04:48.229Z,32.30
2017-07-16T04:07:15.805Z,27.30
2017-07-16T04:09:43.421Z,29.90
2017-07-16T04:12:10.987Z,27.23
2017-07-16T04:14:38.584Z,32.77
2017-07-16T04:17:06.164Z,31.40
2017-07-16T04:19:33.788Z,26.53
2017-07-16T04:22:01.432Z,32.40
2017-07-16T04:24:29.072Z,33.23
2017-07-16T04:26:56.653Z,34.97
2017-07-16T04:29:24.220Z,36.67
2017-07-16T04:31:51.833Z,31.70
2017-07-16T04:34:20.219Z,32.47
2017-07-16T04:36:47.804Z,37.63
2017-07-16T04:39:15.297Z,42.90
2017-07-16T04:41:42.762Z,30.90
2017-07-16T04:44:10.216Z,36.17
2017-07-16T04:46:37.703Z,44.70
2017-07-16T04:49:05.936Z,41.13
2017-07-16T04:51:33.398Z,32.37
2017-07-16T04:54:00.877Z,38.60
2017-07-16T04:56:28.356Z,38.03
2017-07-16T04:58:56.582Z,41.37
2017-07-16T05:01:24.084Z,43.07
2017-07-16T05:03:52.332Z,46.07
2017-07-16T05:06:19.804Z,39.60
2017-07-16T05:08:47.321Z,47.87
2017-07-16T05:11:14.774Z,40.23
2017-07-16T05:13:42.383Z,44.43
2017-07-16T05:16:09.859Z,43.93
2017-07-16T05:18:37.324Z,44.23
2017-07-16T05:21:04.799Z,49.80
2017-07-16T05:23:32.307Z,52.10
2017-07-16T05:25:59.795Z,54.03
2017-07-16T05:28:27.255Z,64.27
2017-07-16T05:30:54.739Z,53.30
2017-07-16T05:33:22.215Z,64.83
2017-07-16T05:35:49.682Z,52.77
2017-07-16T05:38:17.157Z,56.57
2017-07-16T05:40:45.387Z,68.03
2017-07-16T05:43:12.863Z,53.00
2017-07-16T05:45:40.361Z,57.70
2017-07-16T05:48:08.598Z,55.17
2017-07-16T05:50:36.228Z,58.57
2017-07-16T05:53:03.710Z,57.50
2017-07-16T05:55:31.171Z,58.60
2017-07-16T05:57:58.626Z,65.50
2017-07-16T06:00:26.110Z,64.30
2017-07-16T06:02:54.330Z,68.73
2017-07-16T06:05:21.805Z,63.90
2017-07-16T06:07:49.283Z,59.50
2017-07-16T06:10:16.738Z,60.87
2017-07-16T06:12:44.202Z,62.30
2017-07-16T06:15:11.679Z,67.97
2017-07-16T06:17:39.153Z,67.77
2017-07-16T06:20:06.613Z,67.10
2017-07-16T06:22:34.094Z,60.00
2017-07-16T06:25:01.561Z,62.67
2017-07-16T06:27:29.101Z,65.20
2017-07-16T06:29:56.572Z,62.60
2017-07-16T06:32:24.033Z,69.43
2017-07-16T06:34:51.542Z,62.73
2017-07-16T06:37:19.045Z,53.40
2017-07-16T06:39:46.527Z,54.60
2017-07-16T06:42:14.006Z,60.00
2017-07-16T06:44:41.544Z,57.23
2017-07-16T06:47:09.023Z,57.17
2017-07-16T06:49:36.511Z,43.30
2017-07-16T06:52:04.102Z,57.03
2017-07-16T06:54:31.580Z,61.07
2017-07-16T06:56:59.851Z,53.53
2017-07-16T06:59:28.150Z,61.00
2017-07-16T07:01:55.611Z,54.17
2017-07-16T07:04:23.067Z,58.47
2017-07-16T07:06:50.559Z,67.90
2017-07-16T07:09:18.111Z,53.13
2017-07-16T07:11:45.598Z,44.93
2017-07-16T07:14:13.060Z,53.13
2017-07-16T07:16:40.552Z,52.17
2017-07-16T07:19:08.078Z,51.87
2017-07-16T07:21:36.742Z,45.13
2017-07-16T07:24:04.222Z,54.53
2017-07-16T07:26:31.715Z,56.00
2017-07-16T07:28:59.189Z,50.20
2017-07-16T07:31:26.641Z,58.40
2017-07-16T07:33:54.139Z,53.37
2017-07-16T07:36:21.601Z,59.30
2017-07-16T07:38:49.066Z,47.60
2017-07-16T07:41:16.555Z,61.10
2017-07-16T07:43:44.009Z,51.00
2017-07-16T07:46:11.490Z,41.87
2017-07-16T07:48:39.194Z,53.73
2017-07-16T07:51:06.684Z,43.13
2017-07-16T07:53:34.151Z,43.63
2017-07-16T07:56:01.736Z,44.40
2017-07-16T07:58:29.183Z,46.83
2017-07-16T08:00:56.643Z,47.73
2017-07-16T08:03:24.133Z,54.73
2017-07-16T08:05:52.547Z,51.07
2017-07-16T08:08:20.015Z,40.10
2017-07-16T08:10:47.475Z,36.57
2017-07-16T08:13:14.935Z,43.10
2017-07-16T08:15:42.433Z,37.83
2017-07-16T08:18:09.908Z,43.90
2017-07-16T08:20:37.375Z,31.57
2017-07-16T08:23:04.841Z,32.67
2017-07-16T08:25:32.308Z,31.30
2017-07-16T08:27:59.784Z,37.87
2017-07-16T08:30:27.283Z,34.40
2017-07-16T08:32:54.810Z,30.10
2017-07-16T08:35:22.260Z,33.90
2017-07-16T08:37:50.535Z,22.47
2017-07-16T08:40:18.010Z,23.70
2017-07-16T08:42:45.478Z,23.63
2017-07-16T08:45:13.003Z,14.97
2017-07-16T08:47:40.454Z,10.10
2017-07-16T08:50:07.951Z,11.17
2017-07-16T08:52:35.454Z,8.63
2017-07-16T08:55:02.965Z,10.00
2017-07-16T08:57:30.408Z,6.80
2017-07-16T08:59:57.955Z,9.13
2017-07-16T09:02:25.423Z,10.40
2017-07-16T09:04:52.867Z,5.10
2017-07-16T09:07:20.385Z,7.63
2017-07-16T09:09:47.846Z,8.47
2017-07-16T09:12:15.299Z,5.20
2017-07-16T09:14:42.796Z,11.03
2017-07-16T09:17:10.251Z,8.83
2017-07-16T09:19:37.702Z,9.33
2017-07-16T09:22:05.166Z,9.70
2017-07-16T09:24:32.641Z,8.70
2017-07-16T09:27:00.104Z,5.00
2017-07-16T09:29:27.695Z,10.10
2017-07-16T09:31:55.902Z,6.20
2017-07-16T09:34:23.379Z,8.67
2017-07-16T09:36:50.832Z,7.67
2017-07-16T09:39:18.300Z,6.33
2017-07-16T09:41:45.769Z,11.40
2017-07-16T09:44:13.241Z,6.97
2017-07-16T09:46:40.715Z,6.50
2017-07-16T09:49:08.183Z,8.40
2017-07-16T09:51:35.640Z,7.57
2017-07-16T09:54:03.120Z,7.57
2017-07-16T09:56:30.573Z,14.63
2017-07-16T09:58:58.027Z,8.00
2017-07-16T10:01:25.503Z,7.43
2017-07-16T10:03:52.961Z,10.77
2017-07-16T10:06:20.416Z,5.77
2017-07-16T10:08:47.914Z,4.97
2017-07-16T10:11:15.371Z,9.63
2017-07-16T10:13:42.828Z,8.23
2017-07-16T10:16:10.358Z,7.33
2017-07-16T10:18:37.819Z,5.33
2017-07-16T10:21:05.269Z,8.00
2017-07-16T10:23:32.727Z,7.53
2017-07-16T10:26:00.241Z,5.93
2017-07-16T10:28:27.702Z,7.10
2017-07-16T10:30:55.159Z,4.17
2017-07-16T10:33:22.611Z,7.43
2017-07-16T10:35:50.095Z,8.13
2017-07-16T10:38:17.565Z,4.73
2017-07-16T10:40:45.035Z,7.90
2017-07-16T10:43:12.538Z,5.00
2017-07-16T10:45:39.998Z,6.30
2017-07-16T10:48:07.470Z,5.07
2017-07-16T10:50:34.945Z,6.93
2017-07-16T10:53:02.422Z,6.83
2017-07-16T10:55:29.895Z,10.23
2017-07-16T10:57:58.115Z,8.50
2017-07-16T11:00:26.492Z,12.30
2017-07-16T11:02:53.941Z,6.30
2017-07-16T11:05:21.394Z,7.33
2017-07-16T11:07:48.860Z,8.37
2017-07-16T11:10:16.319Z,7.60
2017-07-16T11:12:43.796Z,8.47
2017-07-16T11:15:11.285Z,6.27
2017-07-16T11:17:39.567Z,10.23
2017-07-16T11:20:07.201Z,8.63
2017-07-16T11:22:34.670Z,12.10
2017-07-16T11:25:02.940Z,11.80
2017-07-16T11:27:30.396Z,7.87
2017-07-16T11:29:58.137Z,10.50
2017-07-16T11:32:25.620Z,8.17
2017-07-16T11:34:53.086Z,9.57
2017-07-16T11:37:20.573Z,6.57
2017-07-16T11:39:48.056Z,8.13
2017-07-16T11:42:15.514Z,10.30
2017-07-16T11:44:43.269Z,7.40
2017-07-16T11:47:10.715Z,9.67
2017-07-16T11:49:38.195Z,11.33
2017-07-16T11:52:05.934Z,10.47
2017-07-16T11:54:33.387Z,7.80
2017-07-16T11:57:00.903Z,12.90
2017-07-16T11:59:29.158Z,7.10
2017-07-16T12:01:56.615Z,7.13
2017-07-16T12:04:24.137Z,14.43
2017-07-16T12:06:51.602Z,7.50
2017-07-16T12:09:19.059Z,9.53
2017-07-16T12:11:46.535Z,7.67
2017-07-16T12:14:13.998Z,6.63
2017-07-16T12:16:41.477Z,12.60
2017-07-16T12:19:09.702Z,9.20
2017-07-16T12:21:37.173Z,7.83
2017-07-16T12:24:04.637Z,10.17
2017-07-16T12:26:32.102Z,11.07
2017-07-16T12:28:59.556Z,7.90
2017-07-16T12:31:27.032Z,8.40
2017-07-16T12:33:54.962Z,10.60
2017-07-16T12:36:22.409Z,6.67
2017-07-16T12:38:49.919Z,8.53
2017-07-16T12:41:17.771Z,7.33
2017-07-16T12:43:45.312Z,6.73
2017-07-16T12:46:12.758Z,6.53
2017-07-16T12:48:40.221Z,5.37
2017-07-16T12:51:07.771Z,16.50
2017-07-16T12:53:35.219Z,8.30
2017-07-16T12:56:02.700Z,9.90
2017-07-16T12:58:30.333Z,6.50
2017-07-16T13:00:57.876Z,7.93
2017-07-16T13:03:25.413Z,5.63
2017-07-16T13:05:52.923Z,9.90
2017-07-16T13:08:20.379Z,9.03
2017-07-16T13:10:47.914Z,11.17
2017-07-16T13:13:15.372Z,8.30
2017-07-16T13:15:42.838Z,10.60
2017-07-16T13:18:10.315Z,7.30
2017-07-16T13:20:37.909Z,6.73
2017-07-16T13:23:06.360Z,10.10
2017-07-16T13:25:33.940Z,6.03
2017-07-16T13:28:01.437Z,8.73
2017-07-16T13:30:28.936Z,9.47
2017-07-16T13:32:56.390Z,11.60
2017-07-16T13:35:23.861Z,6.53
2017-07-16T13:37:51.407Z,8.10
2017-07-16T13:40:18.868Z,11.40
2017-07-16T13:42:46.334Z,16.33
2017-07-16T13:45:13.818Z,11.97
2017-07-16T13:47:41.609Z,8.33
2017-07-16T13:50:09.183Z,8.07
2017-07-16T13:52:36.648Z,9.17
2017-07-16T13:55:04.109Z,6.90
2017-07-16T13:57:31.588Z,12.27
2017-07-16T13:59:59.080Z,11.00
2017-07-16T14:02:26.575Z,8.90
2017-07-16T14:04:54.055Z,8.20
2017-07-16T14:07:21.563Z,7.20
2017-07-16T14:09:49.034Z,7.30
2017-07-16T14:12:16.503Z,13.50
2017-07-16T14:14:43.951Z,8.63
2017-07-16T14:17:11.430Z,10.40
2017-07-16T14:19:38.886Z,15.70
2017-07-16T14:22:06.358Z,10.20
2017-07-16T14:24:34.625Z,6.57
2017-07-16T14:27:02.075Z,7.40
2017-07-16T14:29:29.555Z,8.30
2017-07-16T14:31:57.868Z,8.23
2017-07-16T14:34:25.338Z,10.70
2017-07-16T14:36:52.836Z,13.27
2017-07-16T14:39:20.329Z,9.20
2017-07-16T14:41:47.792Z,11.27
2017-07-16T14:44:15.264Z,13.40
2017-07-16T14:46:42.978Z,6.13
2017-07-16T14:49:10.454Z,12.03
2017-07-16T14:51:38.208Z,15.00
2017-07-16T14:54:05.690Z,10.93
2017-07-16T14:56:33.183Z,9.77
2017-07-16T14:59:00.716Z,13.87
2017-07-16T15:01:28.206Z,12.30
2017-07-16T15:03:55.670Z,10.57
2017-07-16T15:06:23.221Z,15.43
2017-07-16T15:08:50.683Z,10.63
2017-07-16T15:11:18.144Z,12.57
2017-07-16T15:13:45.611Z,15.60
2017-07-16T15:16:13.086Z,12.67
2017-07-16T15:18:40.544Z,12.30
2017-07-16T15:21:08.451Z,12.93
2017-07-16T15:23:35.911Z,7.37
2017-07-16T15:26:03.382Z,7.20
2017-07-16T15:28:30.911Z,7.50
2017-07-16T15:30:58.412Z,10.30
2017-07-16T15:33:26.639Z,7.10
2017-07-16T15:35:54.199Z,12.57
2017-07-16T15:38:21.672Z,8.10
2017-07-16T15:40:49.159Z,6.77
2017-07-16T15:43:20.615Z,10.07
2017-07-16T15:45:48.846Z,13.87
2017-07-16T15:48:16.323Z,10.00
2017-07-16T15:50:43.800Z,10.23
2017-07-16T15:53:12.195Z,9.83
2017-07-16T15:55:39.811Z,9.07
2017-07-16T15:58:07.305Z,6.67
2017-07-16T16:00:35.520Z,8.87
2017-07-16T16:03:02.994Z,10.57
2017-07-16T16:05:30.456Z,7.70
2017-07-16T16:07:57.911Z,12.70
2017-07-16T16:10:25.373Z,7.73
2017-07-16T16:12:52.853Z,7.20
2017-07-16T16:15:21.092Z,7.27
2017-07-16T16:17:48.593Z,9.57
2017-07-16T16:20:16.852Z,13.70
2017-07-16T16:22:44.310Z,9.47
2017-07-16T16:25:11.779Z,11.43
2017-07-16T16:27:39.270Z,12.37
2017-07-16T16:30:06.726Z,11.90
2017-07-16T16:32:34.202Z,12.80
2017-07-16T16:35:01.663Z,21.17
2017-07-16T16:37:29.129Z,17.60
2017-07-16T16:39:56.593Z,13.03
2017-07-16T16:42:24.062Z,9.80
2017-07-16T16:44:51.544Z,17.70
2017-07-16T16:47:19.003Z,7.50
2017-07-16T16:49:46.589Z,29.67
2017-07-16T16:52:14.111Z,13.57
2017-07-16T16:54:41.563Z,12.30
2017-07-16T16:57:09.822Z,16.53
2017-07-16T16:59:37.296Z,9.30
2017-07-16T17:02:05.556Z,9.80
2017-07-16T17:04:33.023Z,11.67
2017-07-16T17:07:01.262Z,12.53
2017-07-16T17:09:28.742Z,7.13
2017-07-16T17:11:56.199Z,13.97
2017-07-16T17:14:23.662Z,11.03
2017-07-16T17:16:51.924Z,10.70
2017-07-16T17:19:19.398Z,15.43
2017-07-16T17:21:46.996Z,15.50
2017-07-16T17:24:14.478Z,10.87
2017-07-16T17:26:42.009Z,6.67
2017-07-16T17:29:09.476Z,8.77
2017-07-16T17:31:36.936Z,7.43
2017-07-16T17:34:04.402Z,8.50
2017-07-16T17:36:31.873Z,12.43
2017-07-16T17:38:59.323Z,7.73
2017-07-16T17:41:26.806Z,6.13
2017-07-16T17:43:54.426Z,12.40
2017-07-16T17:46:21.922Z,12.27
2017-07-16T17:48:49.397Z,10.37
2017-07-16T17:51:17.684Z,18.27
2017-07-16T17:53:45.154Z,12.50
2017-07-16T17:56:12.616Z,7.70
2017-07-16T17:58:40.090Z,13.53
2017-07-16T18:01:07.608Z,7.50
2017-07-16T18:03:35.082Z,12.73
2017-07-16T18:06:02.569Z,17.57
2017-07-16T18:08:30.251Z,17.20
2017-07-16T18:10:57.703Z,12.90
2017-07-16T18:13:25.163Z,7.47
2017-07-16T18:15:52.641Z,14.90
2017-07-16T18:18:20.875Z,11.27
2017-07-16T18:20:48.331Z,12.77
2017-07-16T18:23:15.795Z,10.03
2017-07-16T18:25:43.283Z,10.93
2017-07-16T18:28:11.514Z,13.33
2017-07-16T18:30:39.006Z,10.27
2017-07-16T18:33:06.483Z,17.57
2017-07-16T18:35:33.975Z,9.30
2017-07-16T18:38:01.455Z,14.63
2017-07-16T18:40:28.919Z,14.80
2017-07-16T18:42:56.399Z,10.13
2017-07-16T18:45:24.617Z,14.40
2017-07-16T18:47:52.097Z,8.93
2017-07-16T18:50:19.577Z,11.87
2017-07-16T18:52:47.288Z,9.50
2017-07-16T18:55:14.773Z,11.17
2017-07-16T18:57:42.232Z,13.40
2017-07-16T19:00:09.715Z,14.93
2017-07-16T19:02:37.198Z,11.43
2017-07-16T19:05:04.652Z,8.53
2017-07-16T19:07:32.157Z,11.43
2017-07-16T19:09:59.646Z,13.20
2017-07-16T19:12:27.127Z,8.40
2017-07-16T19:14:54.611Z,12.30
2017-07-16T19:17:22.084Z,16.20
2017-07-16T19:19:49.563Z,14.77
2017-07-16T19:22:17.036Z,16.67
2017-07-16T19:24:44.512Z,11.13
2017-07-16T19:27:11.967Z,11.97
2017-07-16T19:29:39.435Z,14.23
2017-07-16T19:32:06.979Z,13.47
2017-07-16T19:34:34.459Z,11.20
2017-07-16T19:37:01.927Z,13.77
2017-07-16T19:39:29.441Z,15.97
2017-07-16T19:42:01.390Z,12.20
2017-07-16T19:44:29.638Z,16.23
2017-07-16T19:46:57.267Z,18.93
2017-07-16T19:49:24.739Z,17.53
2017-07-16T19:51:52.200Z,18.20
2017-07-16T19:54:19.691Z,13.53
2017-07-16T19:56:48.077Z,15.80
2017-07-16T19:59:16.362Z,14.37
2017-07-16T20:01:44.586Z,12.60
2017-07-16T20:04:12.144Z,25.60
2017-07-16T20:06:39.628Z,20.47
2017-07-16T20:09:09.311Z,16.87
2017-07-16T20:11:36.807Z,12.47
2017-07-16T20:14:04.271Z,19.63
2017-07-16T20:16:31.758Z,18.47
2017-07-16T20:18:59.319Z,18.50
2017-07-16T20:21:26.800Z,17.57
2017-07-16T20:23:54.271Z,16.83
2017-07-16T20:26:21.748Z,20.33
2017-07-16T20:28:49.219Z,20.13
2017-07-16T20:31:16.686Z,17.43
2017-07-16T20:33:44.160Z,17.60
2017-07-16T20:36:11.657Z,16.13
2017-07-16T20:38:39.122Z,15.37
2017-07-16T20:41:07.365Z,20.03
2017-07-16T20:43:34.859Z,15.93
2017-07-16T20:46:03.107Z,19.13
2017-07-16T20:48:30.570Z,18.00
2017-07-16T20:50:58.038Z,14.93
2017-07-16T20:53:25.607Z,13.33
2017-07-16T20:55:53.883Z,13.83
2017-07-16T20:58:21.385Z,13.17
2017-07-16T21:00:48.844Z,13.07
2017-07-16T21:03:16.298Z,12.13
2017-07-16T21:05:43.787Z,14.93
2017-07-16T21:08:11.270Z,16.47
2017-07-16T21:10:38.745Z,15.47
2017-07-16T21:13:06.225Z,15.17
2017-07-16T21:15:33.703Z,15.30
2017-07-16T21:18:01.171Z,16.20
2017-07-16T21:20:28.660Z,16.63
2017-07-16T21:22:56.152Z,16.23
2017-07-16T21:25:23.614Z,18.90
2017-07-16T21:27:51.091Z,17.07
2017-07-16T21:30:18.554Z,17.10
2017-07-16T21:32:46.047Z,12.73
2017-07-16T21:35:13.505Z,19.70
2017-07-16T21:37:40.971Z,18.00
2017-07-16T21:40:08.441Z,14.00
2017-07-16T21:42:36.119Z,16.10
2017-07-16T21:45:03.582Z,16.27
2017-07-16T21:47:31.043Z,19.80
2017-07-16T21:49:58.534Z,17.70
2017-07-16T21:52:25.998Z,19.73
2017-07-16T21:54:53.463Z,14.90
2017-07-16T21:57:20.930Z,17.63
2017-07-16T21:59:48.389Z,15.40
2017-07-16T22:02:15.863Z,14.20
2017-07-16T22:04:43.354Z,11.20
2017-07-16T22:07:10.846Z,10.27
2017-07-16T22:09:38.305Z,10.70
2017-07-16T22:12:05.773Z,6.17
2017-07-16T22:14:33.227Z,6.93
2017-07-16T22:17:00.702Z,6.30
2017-07-16T22:19:28.184Z,7.07
2017-07-16T22:21:55.635Z,6.70
2017-07-16T22:24:23.121Z,7.73
2017-07-16T22:26:50.570Z,6.77
2017-07-16T22:29:18.031Z,8.87
2017-07-16T22:31:45.488Z,8.40
2017-07-16T22:34:12.950Z,8.23
2017-07-16T22:36:41.178Z,10.37
2017-07-16T22:39:08.632Z,10.07
2017-07-16T22:41:36.118Z,12.67
2017-07-16T22:44:03.572Z,10.70
2017-07-16T22:46:31.025Z,13.10
2017-07-16T22:48:58.507Z,14.03
2017-07-16T22:51:25.966Z,14.30
2017-07-16T22:53:53.437Z,17.83
2017-07-16T22:56:21.689Z,16.80
2017-07-16T22:58:49.262Z,15.50
2017-07-16T23:01:17.527Z,16.60
2017-07-16T23:03:45.012Z,15.93
2017-07-16T23:06:12.496Z,17.23
2017-07-16T23:08:39.999Z,14.43
2017-07-16T23:11:07.606Z,13.63
2017-07-16T23:13:35.107Z,16.60
2017-07-16T23:16:02.676Z,15.73
2017-07-16T23:18:30.300Z,13.73
2017-07-16T23:20:57.757Z,14.10
2017-07-16T23:23:25.311Z,14.33
2017-07-16T23:25:52.817Z,13.23
2017-07-16T23:28:20.302Z,14.10
2017-07-16T23:30:47.894Z,15.97
2017-07-16T23:33:15.361Z,13.77
2017-07-16T23:35:42.823Z,16.13
2017-07-16T23:38:10.278Z,18.20
2017-07-16T23:40:37.767Z,15.13
2017-07-16T23:43:05.998Z,15.03
2017-07-16T23:45:33.482Z,14.77
2017-07-16T23:48:00.959Z,18.33
2017-07-16T23:50:29.188Z,15.23
2017-07-16T23:52:56.655Z,18.60
2017-07-16T23:55:24.130Z,17.33
2017-07-16T23:57:51.690Z,15.37
